Spirit River, Canada
Current Conditions -  °F | °C
As of 6:00 AM on Thursday 18 Dec 2014 (Local Time) from CYQU Reporting Station
Broken Clouds Broken Clouds  
Wind Chill:   Ceiling: 9000
Heat Index:   Visibility: 25mi
Dew Point:   Wind: 0mph
Humidity: 85%   Direction: NA
Pressure: 29.8"   Gusts: NA
Location:  55.78°N, 118.83°W
Report Text: CYQU 181300Z 00000KT 25SM FEW050 BKN090 M13/M15 A2980 RMK SC2AC3 SLP145
Loading
Personal Weather Stations






























Interactive Weather Map New forecast layout! Learn more

10-Day Weather Forecast

Advertisements
Track Severe Weather on mobile